sensor_id;sensor_type;location;lat;lon;timestamp;P1;durP1;ratioP1;P2;durP2;ratioP2
23378;SDS011;11862;46.070;13.222;2022-10-30T00:00:15;9.95;;;5.50;;
23378;SDS011;11862;46.070;13.222;2022-10-30T00:02:41;7.75;;;4.65;;
23378;SDS011;11862;46.070;13.222;2022-10-30T00:05:07;12.50;;;5.57;;
23378;SDS011;11862;46.070;13.222;2022-10-30T00:07:33;9.82;;;4.50;;
23378;SDS011;11862;46.070;13.222;2022-10-30T00:09:59;6.57;;;4.65;;
23378;SDS011;11862;46.070;13.222;2022-10-30T00:14:57;7.45;;;4.38;;
23378;SDS011;11862;46.070;13.222;2022-10-30T00:17:23;8.43;;;4.95;;
23378;SDS011;11862;46.070;13.222;2022-10-30T00:19:48;8.18;;;5.07;;
23378;SDS011;11862;46.070;13.222;2022-10-30T00:22:14;8.02;;;4.90;;
23378;SDS011;11862;46.070;13.222;2022-10-30T00:24:40;13.10;;;5.25;;
23378;SDS011;11862;46.070;13.222;2022-10-30T00:27:06;14.80;;;5.15;;
23378;SDS011;11862;46.070;13.222;2022-10-30T00:29:32;9.60;;;4.97;;
23378;SDS011;11862;46.070;13.222;2022-10-30T00:31:57;7.50;;;4.32;;
23378;SDS011;11862;46.070;13.222;2022-10-30T00:34:25;10.70;;;5.10;;
23378;SDS011;11862;46.070;13.222;2022-10-30T00:36:54;8.60;;;5.13;;
23378;SDS011;11862;46.070;13.222;2022-10-30T00:39:20;10.25;;;5.35;;
23378;SDS011;11862;46.070;13.222;2022-10-30T00:41:46;9.75;;;4.82;;
23378;SDS011;11862;46.070;13.222;2022-10-30T00:46:59;6.75;;;3.63;;
23378;SDS011;11862;46.070;13.222;2022-10-30T00:49:28;10.57;;;4.35;;
23378;SDS011;11862;46.070;13.222;2022-10-30T00:51:59;8.77;;;3.85;;
23378;SDS011;11862;46.070;13.222;2022-10-30T00:54:27;9.65;;;3.63;;
23378;SDS011;11862;46.070;13.222;2022-10-30T00:56:53;6.88;;;3.90;;
23378;SDS011;11862;46.070;13.222;2022-10-30T00:59:24;8.45;;;3.40;;
23378;SDS011;11862;46.070;13.222;2022-10-30T01:01:52;7.07;;;4.18;;
23378;SDS011;11862;46.070;13.222;2022-10-30T01:04:19;9.52;;;3.88;;
23378;SDS011;11862;46.070;13.222;2022-10-30T01:06:47;8.57;;;4.18;;
23378;SDS011;11862;46.070;13.222;2022-10-30T01:09:17;10.82;;;4.43;;
23378;SDS011;11862;46.070;13.222;2022-10-30T01:11:44;7.70;;;3.72;;
23378;SDS011;11862;46.070;13.222;2022-10-30T01:14:10;7.00;;;3.67;;
23378;SDS011;11862;46.070;13.222;2022-10-30T01:30:40;6.22;;;4.10;;
23378;SDS011;11862;46.070;13.222;2022-10-30T01:33:35;9.82;;;4.05;;
23378;SDS011;11862;46.070;13.222;2022-10-30T01:36:19;7.15;;;4.38;;
23378;SDS011;11862;46.070;13.222;2022-10-30T01:39:05;8.63;;;4.28;;
23378;SDS011;11862;46.070;13.222;2022-10-30T01:41:36;10.70;;;4.97;;
23378;SDS011;11862;46.070;13.222;2022-10-30T01:44:04;8.57;;;4.97;;
23378;SDS011;11862;46.070;13.222;2022-10-30T01:57:57;8.40;;;4.38;;
23378;SDS011;11862;46.070;13.222;2022-10-30T02:00:37;11.52;;;3.63;;
23378;SDS011;11862;46.070;13.222;2022-10-30T02:03:08;11.37;;;4.47;;
23378;SDS011;11862;46.070;13.222;2022-10-30T02:05:43;9.50;;;3.95;;
23378;SDS011;11862;46.070;13.222;2022-10-30T02:08:12;6.35;;;3.35;;
23378;SDS011;11862;46.070;13.222;2022-10-30T02:10:42;8.68;;;3.95;;
23378;SDS011;11862;46.070;13.222;2022-10-30T02:13:09;8.57;;;3.78;;
23378;SDS011;11862;46.070;13.222;2022-10-30T02:15:35;5.78;;;3.95;;
23378;SDS011;11862;46.070;13.222;2022-10-30T02:18:02;7.65;;;3.50;;
23378;SDS011;11862;46.070;13.222;2022-10-30T02:20:29;8.63;;;3.50;;
23378;SDS011;11862;46.070;13.222;2022-10-30T02:22:58;6.22;;;4.20;;
23378;SDS011;11862;46.070;13.222;2022-10-30T02:25:24;6.82;;;3.95;;
23378;SDS011;11862;46.070;13.222;2022-10-30T02:27:50;10.13;;;4.15;;
23378;SDS011;11862;46.070;13.222;2022-10-30T02:30:16;8.40;;;3.70;;
23378;SDS011;11862;46.070;13.222;2022-10-30T02:32:42;9.38;;;4.20;;
23378;SDS011;11862;46.070;13.222;2022-10-30T02:35:08;7.72;;;4.00;;
23378;SDS011;11862;46.070;13.222;2022-10-30T02:37:34;10.15;;;4.38;;
23378;SDS011;11862;46.070;13.222;2022-10-30T02:40:00;7.20;;;3.75;;
23378;SDS011;11862;46.070;13.222;2022-10-30T02:42:27;8.90;;;3.95;;
23378;SDS011;11862;46.070;13.222;2022-10-30T02:44:53;11.15;;;3.80;;
23378;SDS011;11862;46.070;13.222;2022-10-30T02:47:19;9.00;;;3.83;;
23378;SDS011;11862;46.070;13.222;2022-10-30T02:49:45;8.50;;;3.55;;
23378;SDS011;11862;46.070;13.222;2022-10-30T02:52:10;7.78;;;3.72;;
23378;SDS011;11862;46.070;13.222;2022-10-30T02:54:36;8.48;;;3.92;;
23378;SDS011;11862;46.070;13.222;2022-10-30T02:57:02;6.57;;;3.50;;
23378;SDS011;11862;46.070;13.222;2022-10-30T02:59:28;7.82;;;3.63;;
23378;SDS011;11862;46.070;13.222;2022-10-30T03:01:54;10.30;;;4.05;;
23378;SDS011;11862;46.070;13.222;2022-10-30T03:04:20;8.32;;;3.95;;
23378;SDS011;11862;46.070;13.222;2022-10-30T03:06:46;8.55;;;3.35;;
23378;SDS011;11862;46.070;13.222;2022-10-30T03:09:12;9.05;;;3.67;;
23378;SDS011;11862;46.070;13.222;2022-10-30T03:11:38;10.88;;;4.50;;
23378;SDS011;11862;46.070;13.222;2022-10-30T03:14:04;10.32;;;3.17;;
23378;SDS011;11862;46.070;13.222;2022-10-30T03:16:30;8.35;;;3.58;;
23378;SDS011;11862;46.070;13.222;2022-10-30T03:19:00;6.68;;;3.45;;
23378;SDS011;11862;46.070;13.222;2022-10-30T03:21:26;9.30;;;3.22;;
23378;SDS011;11862;46.070;13.222;2022-10-30T03:23:53;10.20;;;3.28;;
23378;SDS011;11862;46.070;13.222;2022-10-30T03:26:19;9.50;;;2.63;;
23378;SDS011;11862;46.070;13.222;2022-10-30T03:28:46;4.72;;;3.20;;
23378;SDS011;11862;46.070;13.222;2022-10-30T03:31:12;11.48;;;3.25;;
23378;SDS011;11862;46.070;13.222;2022-10-30T03:33:41;8.15;;;2.97;;
23378;SDS011;11862;46.070;13.222;2022-10-30T03:36:08;11.15;;;3.20;;
23378;SDS011;11862;46.070;13.222;2022-10-30T03:38:34;7.05;;;3.20;;
23378;SDS011;11862;46.070;13.222;2022-10-30T03:41:04;8.20;;;2.65;;
23378;SDS011;11862;46.070;13.222;2022-10-30T03:43:31;7.18;;;2.90;;
23378;SDS011;11862;46.070;13.222;2022-10-30T03:45:57;9.00;;;3.17;;
23378;SDS011;11862;46.070;13.222;2022-10-30T03:48:24;6.43;;;2.55;;
23378;SDS011;11862;46.070;13.222;2022-10-30T03:50:52;8.07;;;3.17;;
23378;SDS011;11862;46.070;13.222;2022-10-30T03:53:21;9.45;;;3.20;;
23378;SDS011;11862;46.070;13.222;2022-10-30T03:55:51;9.88;;;2.83;;
23378;SDS011;11862;46.070;13.222;2022-10-30T03:58:17;5.65;;;2.90;;
23378;SDS011;11862;46.070;13.222;2022-10-30T04:00:43;8.32;;;3.10;;
23378;SDS011;11862;46.070;13.222;2022-10-30T04:03:10;14.40;;;3.22;;
23378;SDS011;11862;46.070;13.222;2022-10-30T04:05:36;8.60;;;3.13;;
23378;SDS011;11862;46.070;13.222;2022-10-30T04:08:03;8.15;;;3.25;;
23378;SDS011;11862;46.070;13.222;2022-10-30T04:10:31;9.27;;;3.20;;
23378;SDS011;11862;46.070;13.222;2022-10-30T04:13:02;12.10;;;2.58;;
23378;SDS011;11862;46.070;13.222;2022-10-30T04:15:29;7.65;;;3.00;;
23378;SDS011;11862;46.070;13.222;2022-10-30T04:17:55;9.60;;;3.03;;
23378;SDS011;11862;46.070;13.222;2022-10-30T04:20:22;9.65;;;3.13;;
23378;SDS011;11862;46.070;13.222;2022-10-30T04:23:03;10.52;;;3.53;;
23378;SDS011;11862;46.070;13.222;2022-10-30T04:25:32;7.53;;;2.85;;
23378;SDS011;11862;46.070;13.222;2022-10-30T04:27:58;8.20;;;3.33;;
23378;SDS011;11862;46.070;13.222;2022-10-30T04:30:24;10.20;;;3.30;;
23378;SDS011;11862;46.070;13.222;2022-10-30T04:32:55;7.70;;;2.67;;
23378;SDS011;11862;46.070;13.222;2022-10-30T04:35:23;8.77;;;3.03;;
23378;SDS011;11862;46.070;13.222;2022-10-30T04:37:53;9.80;;;3.10;;
23378;SDS011;11862;46.070;13.222;2022-10-30T04:40:21;9.30;;;2.65;;
23378;SDS011;11862;46.070;13.222;2022-10-30T04:42:48;9.80;;;2.90;;
23378;SDS011;11862;46.070;13.222;2022-10-30T04:45:15;7.45;;;3.40;;
23378;SDS011;11862;46.070;13.222;2022-10-30T04:47:41;7.57;;;3.17;;
23378;SDS011;11862;46.070;13.222;2022-10-30T04:50:07;7.53;;;2.67;;
23378;SDS011;11862;46.070;13.222;2022-10-30T04:52:33;9.10;;;3.17;;
23378;SDS011;11862;46.070;13.222;2022-10-30T04:54:59;5.97;;;2.78;;
23378;SDS011;11862;46.070;13.222;2022-10-30T04:57:25;9.85;;;3.45;;
23378;SDS011;11862;46.070;13.222;2022-10-30T04:59:51;6.50;;;2.90;;
23378;SDS011;11862;46.070;13.222;2022-10-30T05:02:17;13.30;;;3.30;;
23378;SDS011;11862;46.070;13.222;2022-10-30T05:04:45;8.52;;;3.13;;
23378;SDS011;11862;46.070;13.222;2022-10-30T05:07:12;7.95;;;2.90;;
23378;SDS011;11862;46.070;13.222;2022-10-30T05:09:39;12.25;;;3.15;;
23378;SDS011;11862;46.070;13.222;2022-10-30T05:12:04;11.27;;;3.38;;
23378;SDS011;11862;46.070;13.222;2022-10-30T05:14:31;7.72;;;3.15;;
23378;SDS011;11862;46.070;13.222;2022-10-30T05:16:57;7.95;;;2.75;;
23378;SDS011;11862;46.070;13.222;2022-10-30T05:19:23;7.03;;;3.17;;
23378;SDS011;11862;46.070;13.222;2022-10-30T05:21:49;5.88;;;3.20;;
23378;SDS011;11862;46.070;13.222;2022-10-30T05:24:16;6.72;;;3.22;;
23378;SDS011;11862;46.070;13.222;2022-10-30T05:26:42;10.68;;;3.17;;
23378;SDS011;11862;46.070;13.222;2022-10-30T05:29:08;6.22;;;3.15;;
23378;SDS011;11862;46.070;13.222;2022-10-30T05:31:34;10.80;;;2.58;;
23378;SDS011;11862;46.070;13.222;2022-10-30T05:34:00;6.05;;;2.60;;
23378;SDS011;11862;46.070;13.222;2022-10-30T05:36:26;8.85;;;3.17;;
23378;SDS011;11862;46.070;13.222;2022-10-30T05:38:51;5.82;;;2.80;;
23378;SDS011;11862;46.070;13.222;2022-10-30T05:41:17;7.93;;;3.00;;
23378;SDS011;11862;46.070;13.222;2022-10-30T05:43:43;8.30;;;3.65;;
23378;SDS011;11862;46.070;13.222;2022-10-30T05:46:09;7.15;;;2.72;;
23378;SDS011;11862;46.070;13.222;2022-10-30T05:48:35;6.28;;;2.55;;
23378;SDS011;11862;46.070;13.222;2022-10-30T05:51:00;7.80;;;3.20;;
23378;SDS011;11862;46.070;13.222;2022-10-30T05:53:28;7.03;;;2.38;;
23378;SDS011;11862;46.070;13.222;2022-10-30T05:55:55;11.98;;;3.20;;
23378;SDS011;11862;46.070;13.222;2022-10-30T05:58:22;6.50;;;3.67;;
23378;SDS011;11862;46.070;13.222;2022-10-30T06:00:48;11.63;;;4.22;;
23378;SDS011;11862;46.070;13.222;2022-10-30T06:03:14;9.55;;;3.08;;
23378;SDS011;11862;46.070;13.222;2022-10-30T06:05:40;4.88;;;2.92;;
23378;SDS011;11862;46.070;13.222;2022-10-30T06:08:10;9.98;;;3.33;;
23378;SDS011;11862;46.070;13.222;2022-10-30T06:10:36;10.45;;;2.83;;
23378;SDS011;11862;46.070;13.222;2022-10-30T06:13:03;9.20;;;2.80;;
23378;SDS011;11862;46.070;13.222;2022-10-30T06:15:30;8.35;;;2.90;;
23378;SDS011;11862;46.070;13.222;2022-10-30T06:17:57;10.50;;;2.70;;
23378;SDS011;11862;46.070;13.222;2022-10-30T06:20:24;10.52;;;3.15;;
23378;SDS011;11862;46.070;13.222;2022-10-30T06:23:02;9.18;;;2.85;;
23378;SDS011;11862;46.070;13.222;2022-10-30T06:25:29;7.30;;;2.95;;
23378;SDS011;11862;46.070;13.222;2022-10-30T06:27:56;6.85;;;2.92;;
23378;SDS011;11862;46.070;13.222;2022-10-30T06:30:23;9.30;;;3.35;;
23378;SDS011;11862;46.070;13.222;2022-10-30T06:32:55;10.48;;;3.60;;
23378;SDS011;11862;46.070;13.222;2022-10-30T06:35:21;6.43;;;2.60;;
23378;SDS011;11862;46.070;13.222;2022-10-30T06:37:47;5.78;;;3.28;;
23378;SDS011;11862;46.070;13.222;2022-10-30T06:40:14;7.93;;;2.53;;
23378;SDS011;11862;46.070;13.222;2022-10-30T06:42:44;5.65;;;2.50;;
23378;SDS011;11862;46.070;13.222;2022-10-30T06:45:11;7.63;;;3.17;;
23378;SDS011;11862;46.070;13.222;2022-10-30T06:47:39;9.65;;;2.70;;
23378;SDS011;11862;46.070;13.222;2022-10-30T06:50:05;8.85;;;3.10;;
23378;SDS011;11862;46.070;13.222;2022-10-30T06:52:33;7.70;;;2.88;;
23378;SDS011;11862;46.070;13.222;2022-10-30T06:54:59;7.88;;;2.90;;
23378;SDS011;11862;46.070;13.222;2022-10-30T06:57:25;7.28;;;3.63;;
23378;SDS011;11862;46.070;13.222;2022-10-30T06:59:51;8.73;;;2.58;;
23378;SDS011;11862;46.070;13.222;2022-10-30T07:02:17;7.38;;;2.67;;
23378;SDS011;11862;46.070;13.222;2022-10-30T07:04:42;5.45;;;2.42;;
23378;SDS011;11862;46.070;13.222;2022-10-30T07:07:10;7.10;;;2.65;;
23378;SDS011;11862;46.070;13.222;2022-10-30T07:09:36;6.22;;;2.40;;
23378;SDS011;11862;46.070;13.222;2022-10-30T07:12:02;9.18;;;2.20;;
23378;SDS011;11862;46.070;13.222;2022-10-30T07:14:28;11.43;;;2.45;;
23378;SDS011;11862;46.070;13.222;2022-10-30T07:16:54;8.50;;;2.40;;
23378;SDS011;11862;46.070;13.222;2022-10-30T07:19:20;8.32;;;3.28;;
23378;SDS011;11862;46.070;13.222;2022-10-30T07:21:46;7.95;;;2.90;;
23378;SDS011;11862;46.070;13.222;2022-10-30T07:24:12;10.70;;;2.50;;
23378;SDS011;11862;46.070;13.222;2022-10-30T07:26:38;9.25;;;2.95;;
23378;SDS011;11862;46.070;13.222;2022-10-30T07:29:04;8.93;;;3.00;;
23378;SDS011;11862;46.070;13.222;2022-10-30T07:31:30;7.20;;;2.78;;
23378;SDS011;11862;46.070;13.222;2022-10-30T07:33:57;8.65;;;2.38;;
23378;SDS011;11862;46.070;13.222;2022-10-30T07:36:22;12.70;;;3.15;;
23378;SDS011;11862;46.070;13.222;2022-10-30T07:38:49;10.48;;;2.88;;
23378;SDS011;11862;46.070;13.222;2022-10-30T07:41:19;5.78;;;2.67;;
23378;SDS011;11862;46.070;13.222;2022-10-30T07:43:45;12.63;;;3.03;;
23378;SDS011;11862;46.070;13.222;2022-10-30T07:46:11;12.35;;;2.58;;
23378;SDS011;11862;46.070;13.222;2022-10-30T07:48:38;11.57;;;3.13;;
23378;SDS011;11862;46.070;13.222;2022-10-30T07:51:04;6.72;;;2.78;;
23378;SDS011;11862;46.070;13.222;2022-10-30T07:53:30;8.27;;;2.65;;
23378;SDS011;11862;46.070;13.222;2022-10-30T07:55:56;8.27;;;2.92;;
23378;SDS011;11862;46.070;13.222;2022-10-30T07:58:22;6.03;;;2.38;;
23378;SDS011;11862;46.070;13.222;2022-10-30T08:00:48;8.00;;;2.30;;
23378;SDS011;11862;46.070;13.222;2022-10-30T08:03:14;8.43;;;2.90;;
23378;SDS011;11862;46.070;13.222;2022-10-30T08:05:40;8.90;;;3.00;;
23378;SDS011;11862;46.070;13.222;2022-10-30T08:08:06;9.77;;;2.60;;
23378;SDS011;11862;46.070;13.222;2022-10-30T08:10:33;7.97;;;2.67;;
23378;SDS011;11862;46.070;13.222;2022-10-30T08:13:00;7.25;;;2.33;;
23378;SDS011;11862;46.070;13.222;2022-10-30T08:15:26;8.15;;;2.47;;
23378;SDS011;11862;46.070;13.222;2022-10-30T08:17:52;5.93;;;2.10;;
23378;SDS011;11862;46.070;13.222;2022-10-30T08:20:19;8.45;;;2.72;;
23378;SDS011;11862;46.070;13.222;2022-10-30T08:22:48;10.77;;;2.30;;
23378;SDS011;11862;46.070;13.222;2022-10-30T08:25:15;13.65;;;2.30;;
23378;SDS011;11862;46.070;13.222;2022-10-30T08:27:59;7.68;;;2.03;;
23378;SDS011;11862;46.070;13.222;2022-10-30T08:30:27;9.48;;;2.40;;
23378;SDS011;11862;46.070;13.222;2022-10-30T08:32:58;9.82;;;3.10;;
23378;SDS011;11862;46.070;13.222;2022-10-30T08:35:26;8.45;;;2.53;;
23378;SDS011;11862;46.070;13.222;2022-10-30T08:37:56;7.30;;;2.28;;
23378;SDS011;11862;46.070;13.222;2022-10-30T08:40:22;10.10;;;2.03;;
23378;SDS011;11862;46.070;13.222;2022-10-30T08:42:52;6.85;;;2.70;;
23378;SDS011;11862;46.070;13.222;2022-10-30T08:45:19;8.07;;;2.03;;
23378;SDS011;11862;46.070;13.222;2022-10-30T08:47:45;6.55;;;2.20;;
23378;SDS011;11862;46.070;13.222;2022-10-30T08:50:11;12.88;;;2.83;;
23378;SDS011;11862;46.070;13.222;2022-10-30T08:52:37;8.25;;;2.53;;
23378;SDS011;11862;46.070;13.222;2022-10-30T08:55:03;7.90;;;2.50;;
23378;SDS011;11862;46.070;13.222;2022-10-30T08:57:34;10.00;;;2.75;;
23378;SDS011;11862;46.070;13.222;2022-10-30T09:00:01;8.23;;;2.58;;
23378;SDS011;11862;46.070;13.222;2022-10-30T09:02:31;8.15;;;2.35;;
23378;SDS011;11862;46.070;13.222;2022-10-30T09:04:59;7.50;;;2.70;;
23378;SDS011;11862;46.070;13.222;2022-10-30T09:07:25;6.35;;;2.47;;
23378;SDS011;11862;46.070;13.222;2022-10-30T09:09:50;10.30;;;2.35;;
23378;SDS011;11862;46.070;13.222;2022-10-30T09:12:17;5.18;;;2.40;;
23378;SDS011;11862;46.070;13.222;2022-10-30T09:14:42;8.65;;;2.92;;
23378;SDS011;11862;46.070;13.222;2022-10-30T09:17:08;8.43;;;2.40;;
23378;SDS011;11862;46.070;13.222;2022-10-30T09:19:34;9.18;;;2.65;;
23378;SDS011;11862;46.070;13.222;2022-10-30T09:22:00;5.05;;;2.28;;
23378;SDS011;11862;46.070;13.222;2022-10-30T09:24:26;10.05;;;2.53;;
23378;SDS011;11862;46.070;13.222;2022-10-30T09:26:53;6.22;;;2.83;;
23378;SDS011;11862;46.070;13.222;2022-10-30T09:29:19;8.95;;;2.53;;
23378;SDS011;11862;46.070;13.222;2022-10-30T09:31:45;5.43;;;1.95;;
23378;SDS011;11862;46.070;13.222;2022-10-30T09:34:11;9.63;;;2.55;;
23378;SDS011;11862;46.070;13.222;2022-10-30T09:36:36;5.90;;;2.35;;
23378;SDS011;11862;46.070;13.222;2022-10-30T09:39:02;9.20;;;2.15;;
23378;SDS011;11862;46.070;13.222;2022-10-30T09:52:21;6.63;;;2.40;;
23378;SDS011;11862;46.070;13.222;2022-10-30T09:54:52;5.78;;;2.00;;
23378;SDS011;11862;46.070;13.222;2022-10-30T10:00:02;6.88;;;2.40;;
23378;SDS011;11862;46.070;13.222;2022-10-30T10:05:44;7.80;;;2.60;;
23378;SDS011;11862;46.070;13.222;2022-10-30T10:08:25;7.45;;;2.10;;
23378;SDS011;11862;46.070;13.222;2022-10-30T10:11:17;6.28;;;2.20;;
23378;SDS011;11862;46.070;13.222;2022-10-30T10:13:49;9.85;;;2.50;;
23378;SDS011;11862;46.070;13.222;2022-10-30T10:16:52;9.25;;;2.30;;
23378;SDS011;11862;46.070;13.222;2022-10-30T10:19:20;12.55;;;2.83;;
23378;SDS011;11862;46.070;13.222;2022-10-30T10:22:00;6.90;;;2.20;;
23378;SDS011;11862;46.070;13.222;2022-10-30T10:24:33;8.85;;;2.53;;
23378;SDS011;11862;46.070;13.222;2022-10-30T10:27:09;8.45;;;2.65;;
23378;SDS011;11862;46.070;13.222;2022-10-30T10:46:30;8.38;;;2.42;;
23378;SDS011;11862;46.070;13.222;2022-10-30T10:49:09;8.55;;;2.50;;
23378;SDS011;11862;46.070;13.222;2022-10-30T10:52:15;10.10;;;2.17;;
23378;SDS011;11862;46.070;13.222;2022-10-30T10:57:07;8.43;;;2.50;;
23378;SDS011;11862;46.070;13.222;2022-10-30T10:59:50;5.95;;;2.38;;
23378;SDS011;11862;46.070;13.222;2022-10-30T11:02:28;7.53;;;2.58;;
23378;SDS011;11862;46.070;13.222;2022-10-30T11:05:01;5.78;;;2.42;;
23378;SDS011;11862;46.070;13.222;2022-10-30T11:07:32;10.60;;;2.97;;
23378;SDS011;11862;46.070;13.222;2022-10-30T11:10:01;11.43;;;2.60;;
23378;SDS011;11862;46.070;13.222;2022-10-30T11:12:35;7.70;;;2.40;;
23378;SDS011;11862;46.070;13.222;2022-10-30T11:18:05;5.57;;;2.42;;
23378;SDS011;11862;46.070;13.222;2022-10-30T11:31:29;5.90;;;2.17;;
23378;SDS011;11862;46.070;13.222;2022-10-30T11:34:24;8.18;;;2.22;;
23378;SDS011;11862;46.070;13.222;2022-10-30T11:36:50;7.63;;;2.20;;
23378;SDS011;11862;46.070;13.222;2022-10-30T11:41:58;11.50;;;2.35;;
23378;SDS011;11862;46.070;13.222;2022-10-30T11:44:31;8.43;;;2.40;;
23378;SDS011;11862;46.070;13.222;2022-10-30T11:47:00;7.53;;;2.53;;
23378;SDS011;11862;46.070;13.222;2022-10-30T11:49:29;8.95;;;2.53;;
23378;SDS011;11862;46.070;13.222;2022-10-30T11:51:59;8.20;;;2.42;;
23378;SDS011;11862;46.070;13.222;2022-10-30T11:54:25;13.15;;;2.30;;
23378;SDS011;11862;46.070;13.222;2022-10-30T11:56:51;8.07;;;2.08;;
23378;SDS011;11862;46.070;13.222;2022-10-30T11:59:19;5.78;;;2.13;;
23378;SDS011;11862;46.070;13.222;2022-10-30T12:02:18;6.63;;;2.28;;
23378;SDS011;11862;46.070;13.222;2022-10-30T12:04:47;8.82;;;2.55;;
23378;SDS011;11862;46.070;13.222;2022-10-30T12:09:48;8.35;;;2.28;;
23378;SDS011;11862;46.070;13.222;2022-10-30T12:12:20;5.75;;;2.65;;
23378;SDS011;11862;46.070;13.222;2022-10-30T12:14:57;9.43;;;2.28;;
23378;SDS011;11862;46.070;13.222;2022-10-30T12:17:38;5.20;;;2.17;;
23378;SDS011;11862;46.070;13.222;2022-10-30T12:20:05;9.05;;;2.67;;
23378;SDS011;11862;46.070;13.222;2022-10-30T12:22:33;10.07;;;2.80;;
23378;SDS011;11862;46.070;13.222;2022-10-30T12:25:02;5.40;;;2.05;;
23378;SDS011;11862;46.070;13.222;2022-10-30T12:27:30;12.10;;;2.58;;
23378;SDS011;11862;46.070;13.222;2022-10-30T12:30:15;11.63;;;2.88;;
23378;SDS011;11862;46.070;13.222;2022-10-30T12:35:56;11.85;;;2.42;;
23378;SDS011;11862;46.070;13.222;2022-10-30T12:38:17;8.75;;;2.33;;
23378;SDS011;11862;46.070;13.222;2022-10-30T12:40:57;6.63;;;2.17;;
23378;SDS011;11862;46.070;13.222;2022-10-30T12:43:53;4.75;;;1.98;;
23378;SDS011;11862;46.070;13.222;2022-10-30T12:54:38;9.73;;;3.22;;
23378;SDS011;11862;46.070;13.222;2022-10-30T12:57:24;9.77;;;3.13;;
23378;SDS011;11862;46.070;13.222;2022-10-30T13:05:32;9.85;;;3.15;;
23378;SDS011;11862;46.070;13.222;2022-10-30T13:11:02;6.80;;;2.08;;
23378;SDS011;11862;46.070;13.222;2022-10-30T13:13:34;9.43;;;2.90;;
23378;SDS011;11862;46.070;13.222;2022-10-30T13:16:02;10.70;;;2.20;;
23378;SDS011;11862;46.070;13.222;2022-10-30T13:18:43;11.82;;;2.92;;
23378;SDS011;11862;46.070;13.222;2022-10-30T13:28:50;9.20;;;2.33;;
23378;SDS011;11862;46.070;13.222;2022-10-30T13:37:00;9.55;;;2.70;;
23378;SDS011;11862;46.070;13.222;2022-10-30T13:40:03;5.35;;;2.28;;
23378;SDS011;11862;46.070;13.222;2022-10-30T13:42:54;10.43;;;3.20;;
23378;SDS011;11862;46.070;13.222;2022-10-30T13:50:37;10.20;;;2.83;;
23378;SDS011;11862;46.070;13.222;2022-10-30T13:53:14;11.07;;;2.83;;
23378;SDS011;11862;46.070;13.222;2022-10-30T13:55:45;6.13;;;2.70;;
23378;SDS011;11862;46.070;13.222;2022-10-30T13:58:19;8.30;;;3.20;;
23378;SDS011;11862;46.070;13.222;2022-10-30T14:06:17;10.35;;;2.95;;
23378;SDS011;11862;46.070;13.222;2022-10-30T14:09:46;6.90;;;3.05;;
23378;SDS011;11862;46.070;13.222;2022-10-30T14:11:52;11.35;;;3.40;;
23378;SDS011;11862;46.070;13.222;2022-10-30T14:14:36;11.52;;;3.30;;
23378;SDS011;11862;46.070;13.222;2022-10-30T14:17:12;9.07;;;2.78;;
23378;SDS011;11862;46.070;13.222;2022-10-30T14:22:29;6.78;;;2.33;;
23378;SDS011;11862;46.070;13.222;2022-10-30T14:24:56;9.85;;;3.22;;
23378;SDS011;11862;46.070;13.222;2022-10-30T14:27:30;9.70;;;3.30;;
23378;SDS011;11862;46.070;13.222;2022-10-30T14:29:58;9.57;;;3.08;;
23378;SDS011;11862;46.070;13.222;2022-10-30T14:39:52;10.88;;;2.97;;
23378;SDS011;11862;46.070;13.222;2022-10-30T14:45:14;8.43;;;2.60;;
23378;SDS011;11862;46.070;13.222;2022-10-30T14:47:43;4.78;;;2.80;;
23378;SDS011;11862;46.070;13.222;2022-10-30T14:56:29;8.05;;;2.50;;
23378;SDS011;11862;46.070;13.222;2022-10-30T14:59:16;6.13;;;2.35;;
23378;SDS011;11862;46.070;13.222;2022-10-30T15:07:36;8.55;;;2.65;;
23378;SDS011;11862;46.070;13.222;2022-10-30T15:10:32;6.80;;;2.80;;
23378;SDS011;11862;46.070;13.222;2022-10-30T15:13:13;8.95;;;3.35;;
23378;SDS011;11862;46.070;13.222;2022-10-30T15:15:44;8.98;;;2.85;;
23378;SDS011;11862;46.070;13.222;2022-10-30T15:18:20;7.10;;;2.80;;
23378;SDS011;11862;46.070;13.222;2022-10-30T15:20:50;14.75;;;3.97;;
23378;SDS011;11862;46.070;13.222;2022-10-30T15:23:19;8.10;;;2.78;;
23378;SDS011;11862;46.070;13.222;2022-10-30T15:26:07;7.80;;;2.83;;
23378;SDS011;11862;46.070;13.222;2022-10-30T15:28:48;5.22;;;2.55;;
23378;SDS011;11862;46.070;13.222;2022-10-30T15:33:47;11.15;;;3.42;;
23378;SDS011;11862;46.070;13.222;2022-10-30T15:36:20;7.50;;;3.03;;
23378;SDS011;11862;46.070;13.222;2022-10-30T15:39:04;6.45;;;3.40;;
23378;SDS011;11862;46.070;13.222;2022-10-30T15:41:42;6.25;;;2.80;;
23378;SDS011;11862;46.070;13.222;2022-10-30T15:44:26;8.45;;;3.03;;
23378;SDS011;11862;46.070;13.222;2022-10-30T15:46:54;7.55;;;3.00;;
23378;SDS011;11862;46.070;13.222;2022-10-30T15:50:08;5.47;;;2.72;;
23378;SDS011;11862;46.070;13.222;2022-10-30T15:52:26;8.82;;;3.38;;
23378;SDS011;11862;46.070;13.222;2022-10-30T15:54:58;8.80;;;3.20;;
23378;SDS011;11862;46.070;13.222;2022-10-30T15:57:36;6.78;;;2.78;;
23378;SDS011;11862;46.070;13.222;2022-10-30T16:00:21;6.75;;;3.05;;
23378;SDS011;11862;46.070;13.222;2022-10-30T16:03:03;6.80;;;2.70;;
23378;SDS011;11862;46.070;13.222;2022-10-30T16:05:35;7.15;;;3.13;;
23378;SDS011;11862;46.070;13.222;2022-10-30T16:08:01;7.45;;;3.45;;
23378;SDS011;11862;46.070;13.222;2022-10-30T16:10:32;7.40;;;3.28;;
23378;SDS011;11862;46.070;13.222;2022-10-30T16:12:59;7.45;;;3.50;;
23378;SDS011;11862;46.070;13.222;2022-10-30T16:15:33;9.07;;;3.25;;
23378;SDS011;11862;46.070;13.222;2022-10-30T16:18:04;11.90;;;3.58;;
23378;SDS011;11862;46.070;13.222;2022-10-30T16:20:38;10.60;;;2.70;;
23378;SDS011;11862;46.070;13.222;2022-10-30T16:23:06;10.18;;;3.55;;
23378;SDS011;11862;46.070;13.222;2022-10-30T16:25:32;11.07;;;3.10;;
23378;SDS011;11862;46.070;13.222;2022-10-30T16:28:01;10.68;;;3.55;;
23378;SDS011;11862;46.070;13.222;2022-10-30T16:30:29;9.23;;;3.55;;
23378;SDS011;11862;46.070;13.222;2022-10-30T16:32:56;8.82;;;3.95;;
23378;SDS011;11862;46.070;13.222;2022-10-30T16:35:23;9.95;;;3.67;;
23378;SDS011;11862;46.070;13.222;2022-10-30T16:37:50;10.52;;;3.03;;
23378;SDS011;11862;46.070;13.222;2022-10-30T16:40:18;7.10;;;3.17;;
23378;SDS011;11862;46.070;13.222;2022-10-30T16:42:58;6.68;;;2.90;;
23378;SDS011;11862;46.070;13.222;2022-10-30T16:47:56;8.60;;;4.07;;
23378;SDS011;11862;46.070;13.222;2022-10-30T16:50:30;6.00;;;3.42;;
23378;SDS011;11862;46.070;13.222;2022-10-30T16:53:05;9.18;;;3.88;;
23378;SDS011;11862;46.070;13.222;2022-10-30T16:55:35;8.60;;;3.95;;
23378;SDS011;11862;46.070;13.222;2022-10-30T16:58:02;9.18;;;3.47;;
23378;SDS011;11862;46.070;13.222;2022-10-30T17:00:28;14.30;;;5.05;;
23378;SDS011;11862;46.070;13.222;2022-10-30T17:02:55;13.20;;;5.18;;
23378;SDS011;11862;46.070;13.222;2022-10-30T17:05:26;12.85;;;4.88;;
23378;SDS011;11862;46.070;13.222;2022-10-30T17:07:54;10.38;;;4.80;;
23378;SDS011;11862;46.070;13.222;2022-10-30T17:18:54;12.60;;;4.97;;
23378;SDS011;11862;46.070;13.222;2022-10-30T17:23:53;13.60;;;5.78;;
23378;SDS011;11862;46.070;13.222;2022-10-30T17:26:22;10.88;;;4.88;;
23378;SDS011;11862;46.070;13.222;2022-10-30T17:28:48;9.82;;;5.07;;
23378;SDS011;11862;46.070;13.222;2022-10-30T17:33:43;18.83;;;5.55;;
23378;SDS011;11862;46.070;13.222;2022-10-30T17:36:10;15.40;;;6.25;;
23378;SDS011;11862;46.070;13.222;2022-10-30T17:38:36;12.38;;;5.88;;